sensor_id;sensor_type;location;lat;lon;timestamp;P1;durP1;ratioP1;P2;durP2;ratioP2
14681;SDS011;7429;52.498;13.480;2024-03-08T00:02:50;33.90;;;19.50;;
14681;SDS011;7429;52.498;13.480;2024-03-08T00:06:05;38.60;;;20.87;;
14681;SDS011;7429;52.498;13.480;2024-03-08T00:09:09;31.30;;;20.23;;
14681;SDS011;7429;52.498;13.480;2024-03-08T00:12:29;32.07;;;19.67;;
14681;SDS011;7429;52.498;13.480;2024-03-08T00:16:11;33.40;;;20.43;;
14681;SDS011;7429;52.498;13.480;2024-03-08T00:19:47;32.53;;;19.87;;
14681;SDS011;7429;52.498;13.480;2024-03-08T00:22:55;35.73;;;20.00;;
14681;SDS011;7429;52.498;13.480;2024-03-08T00:26:15;33.07;;;19.63;;
14681;SDS011;7429;52.498;13.480;2024-03-08T00:29:25;35.43;;;22.13;;
14681;SDS011;7429;52.498;13.480;2024-03-08T00:32:35;35.90;;;19.33;;
14681;SDS011;7429;52.498;13.480;2024-03-08T00:35:48;36.87;;;20.17;;
14681;SDS011;7429;52.498;13.480;2024-03-08T00:39:01;33.43;;;20.97;;
14681;SDS011;7429;52.498;13.480;2024-03-08T00:42:19;31.07;;;18.53;;
14681;SDS011;7429;52.498;13.480;2024-03-08T00:45:26;32.50;;;19.60;;
14681;SDS011;7429;52.498;13.480;2024-03-08T00:48:46;34.97;;;21.37;;
14681;SDS011;7429;52.498;13.480;2024-03-08T00:52:03;39.37;;;20.53;;
14681;SDS011;7429;52.498;13.480;2024-03-08T00:55:20;36.10;;;21.10;;
14681;SDS011;7429;52.498;13.480;2024-03-08T00:58:30;34.37;;;18.90;;
14681;SDS011;7429;52.498;13.480;2024-03-08T01:01:50;31.43;;;20.10;;
14681;SDS011;7429;52.498;13.480;2024-03-08T01:04:56;30.77;;;19.00;;
14681;SDS011;7429;52.498;13.480;2024-03-08T01:08:13;35.97;;;20.77;;
14681;SDS011;7429;52.498;13.480;2024-03-08T01:11:22;36.07;;;19.77;;
14681;SDS011;7429;52.498;13.480;2024-03-08T01:14:38;38.50;;;20.27;;
14681;SDS011;7429;52.498;13.480;2024-03-08T01:17:50;36.43;;;19.87;;
14681;SDS011;7429;52.498;13.480;2024-03-08T01:21:05;33.47;;;20.93;;
14681;SDS011;7429;52.498;13.480;2024-03-08T01:24:24;37.37;;;21.23;;
14681;SDS011;7429;52.498;13.480;2024-03-08T01:27:38;33.03;;;20.50;;
14681;SDS011;7429;52.498;13.480;2024-03-08T01:30:48;36.37;;;20.63;;
14681;SDS011;7429;52.498;13.480;2024-03-08T01:34:00;37.83;;;22.13;;
14681;SDS011;7429;52.498;13.480;2024-03-08T01:37:11;39.03;;;22.27;;
14681;SDS011;7429;52.498;13.480;2024-03-08T01:40:23;36.33;;;20.43;;
14681;SDS011;7429;52.498;13.480;2024-03-08T01:43:32;33.10;;;19.90;;
14681;SDS011;7429;52.498;13.480;2024-03-08T01:46:42;35.63;;;21.03;;
14681;SDS011;7429;52.498;13.480;2024-03-08T01:49:46;36.27;;;21.57;;
14681;SDS011;7429;52.498;13.480;2024-03-08T01:52:55;36.53;;;20.47;;
14681;SDS011;7429;52.498;13.480;2024-03-08T01:56:03;36.90;;;21.07;;
14681;SDS011;7429;52.498;13.480;2024-03-08T01:59:16;39.13;;;19.80;;
14681;SDS011;7429;52.498;13.480;2024-03-08T02:02:24;35.63;;;20.13;;
14681;SDS011;7429;52.498;13.480;2024-03-08T02:05:29;32.67;;;20.20;;
14681;SDS011;7429;52.498;13.480;2024-03-08T02:08:33;40.03;;;21.60;;
14681;SDS011;7429;52.498;13.480;2024-03-08T02:11:48;36.57;;;22.43;;
14681;SDS011;7429;52.498;13.480;2024-03-08T02:18:57;35.70;;;21.20;;
14681;SDS011;7429;52.498;13.480;2024-03-08T02:22:04;37.47;;;21.17;;
14681;SDS011;7429;52.498;13.480;2024-03-08T02:25:08;36.57;;;20.97;;
14681;SDS011;7429;52.498;13.480;2024-03-08T02:28:15;37.93;;;21.53;;
14681;SDS011;7429;52.498;13.480;2024-03-08T02:31:26;42.30;;;22.57;;
14681;SDS011;7429;52.498;13.480;2024-03-08T02:34:36;41.60;;;21.90;;
14681;SDS011;7429;52.498;13.480;2024-03-08T02:37:43;35.07;;;20.90;;
14681;SDS011;7429;52.498;13.480;2024-03-08T02:40:52;43.10;;;22.83;;
14681;SDS011;7429;52.498;13.480;2024-03-08T02:43:56;39.40;;;22.13;;
14681;SDS011;7429;52.498;13.480;2024-03-08T02:47:08;33.40;;;20.07;;
14681;SDS011;7429;52.498;13.480;2024-03-08T02:50:17;43.07;;;21.40;;
14681;SDS011;7429;52.498;13.480;2024-03-08T02:53:25;39.77;;;21.67;;
14681;SDS011;7429;52.498;13.480;2024-03-08T02:56:31;37.80;;;22.13;;
14681;SDS011;7429;52.498;13.480;2024-03-08T02:59:36;39.87;;;22.47;;
14681;SDS011;7429;52.498;13.480;2024-03-08T03:02:43;42.80;;;22.50;;
14681;SDS011;7429;52.498;13.480;2024-03-08T03:05:46;40.00;;;22.70;;
14681;SDS011;7429;52.498;13.480;2024-03-08T03:08:52;36.60;;;21.87;;
14681;SDS011;7429;52.498;13.480;2024-03-08T03:11:56;41.77;;;24.17;;
14681;SDS011;7429;52.498;13.480;2024-03-08T03:15:04;42.63;;;23.93;;
14681;SDS011;7429;52.498;13.480;2024-03-08T03:18:14;40.80;;;22.77;;
14681;SDS011;7429;52.498;13.480;2024-03-08T03:21:27;39.80;;;22.87;;
14681;SDS011;7429;52.498;13.480;2024-03-08T03:24:39;44.37;;;24.13;;
14681;SDS011;7429;52.498;13.480;2024-03-08T03:27:43;40.43;;;22.67;;
14681;SDS011;7429;52.498;13.480;2024-03-08T03:30:52;45.07;;;24.13;;
14681;SDS011;7429;52.498;13.480;2024-03-08T03:34:05;42.17;;;23.47;;
14681;SDS011;7429;52.498;13.480;2024-03-08T03:37:16;40.07;;;23.70;;
14681;SDS011;7429;52.498;13.480;2024-03-08T03:40:35;45.43;;;25.10;;
14681;SDS011;7429;52.498;13.480;2024-03-08T03:43:43;39.53;;;23.53;;
14681;SDS011;7429;52.498;13.480;2024-03-08T03:46:49;45.60;;;24.60;;
14681;SDS011;7429;52.498;13.480;2024-03-08T03:49:56;43.43;;;23.73;;
14681;SDS011;7429;52.498;13.480;2024-03-08T03:53:04;40.50;;;23.17;;
14681;SDS011;7429;52.498;13.480;2024-03-08T03:56:15;42.93;;;24.00;;
14681;SDS011;7429;52.498;13.480;2024-03-08T03:59:19;46.97;;;24.50;;
14681;SDS011;7429;52.498;13.480;2024-03-08T04:02:30;45.43;;;23.80;;
14681;SDS011;7429;52.498;13.480;2024-03-08T04:05:35;43.90;;;23.70;;
14681;SDS011;7429;52.498;13.480;2024-03-08T04:08:40;43.33;;;23.70;;
14681;SDS011;7429;52.498;13.480;2024-03-08T04:11:45;40.73;;;24.63;;
14681;SDS011;7429;52.498;13.480;2024-03-08T04:14:52;46.97;;;23.80;;
14681;SDS011;7429;52.498;13.480;2024-03-08T04:18:06;44.70;;;24.50;;
14681;SDS011;7429;52.498;13.480;2024-03-08T04:21:16;36.67;;;22.67;;
14681;SDS011;7429;52.498;13.480;2024-03-08T04:24:22;44.97;;;24.20;;
14681;SDS011;7429;52.498;13.480;2024-03-08T04:27:28;45.40;;;24.60;;
14681;SDS011;7429;52.498;13.480;2024-03-08T04:30:38;46.60;;;25.70;;
14681;SDS011;7429;52.498;13.480;2024-03-08T04:33:47;44.30;;;24.63;;
14681;SDS011;7429;52.498;13.480;2024-03-08T04:36:53;47.40;;;25.27;;
14681;SDS011;7429;52.498;13.480;2024-03-08T04:40:03;44.10;;;24.60;;
14681;SDS011;7429;52.498;13.480;2024-03-08T04:43:17;41.70;;;24.77;;
14681;SDS011;7429;52.498;13.480;2024-03-08T04:46:27;43.67;;;24.37;;
14681;SDS011;7429;52.498;13.480;2024-03-08T04:49:40;43.80;;;27.13;;
14681;SDS011;7429;52.498;13.480;2024-03-08T04:52:48;43.30;;;25.63;;
14681;SDS011;7429;52.498;13.480;2024-03-08T04:55:56;50.57;;;27.17;;
14681;SDS011;7429;52.498;13.480;2024-03-08T04:59:04;44.13;;;25.17;;
14681;SDS011;7429;52.498;13.480;2024-03-08T05:02:17;51.80;;;26.67;;
14681;SDS011;7429;52.498;13.480;2024-03-08T05:05:20;48.17;;;25.37;;
14681;SDS011;7429;52.498;13.480;2024-03-08T05:08:27;47.47;;;26.03;;
14681;SDS011;7429;52.498;13.480;2024-03-08T05:11:37;46.60;;;25.23;;
14681;SDS011;7429;52.498;13.480;2024-03-08T05:14:57;46.10;;;25.97;;
14681;SDS011;7429;52.498;13.480;2024-03-08T05:18:06;50.83;;;27.00;;
14681;SDS011;7429;52.498;13.480;2024-03-08T05:21:25;46.93;;;25.57;;
14681;SDS011;7429;52.498;13.480;2024-03-08T05:24:39;56.47;;;27.37;;
14681;SDS011;7429;52.498;13.480;2024-03-08T05:27:50;50.87;;;26.40;;
14681;SDS011;7429;52.498;13.480;2024-03-08T05:30:56;40.90;;;25.00;;
14681;SDS011;7429;52.498;13.480;2024-03-08T05:34:03;50.47;;;25.80;;
14681;SDS011;7429;52.498;13.480;2024-03-08T05:37:07;47.73;;;26.30;;
14681;SDS011;7429;52.498;13.480;2024-03-08T05:40:26;52.60;;;27.70;;
14681;SDS011;7429;52.498;13.480;2024-03-08T05:43:35;51.77;;;28.17;;
14681;SDS011;7429;52.498;13.480;2024-03-08T05:46:40;55.67;;;28.60;;
14681;SDS011;7429;52.498;13.480;2024-03-08T05:49:44;52.77;;;27.27;;
14681;SDS011;7429;52.498;13.480;2024-03-08T05:52:49;54.77;;;28.80;;
14681;SDS011;7429;52.498;13.480;2024-03-08T05:55:56;53.57;;;28.60;;
14681;SDS011;7429;52.498;13.480;2024-03-08T05:59:08;55.07;;;28.07;;
14681;SDS011;7429;52.498;13.480;2024-03-08T06:02:23;53.97;;;28.47;;
14681;SDS011;7429;52.498;13.480;2024-03-08T06:05:34;47.63;;;27.70;;
14681;SDS011;7429;52.498;13.480;2024-03-08T06:09:05;51.20;;;27.53;;
14681;SDS011;7429;52.498;13.480;2024-03-08T06:12:21;53.97;;;28.33;;
14681;SDS011;7429;52.498;13.480;2024-03-08T06:15:46;50.90;;;28.27;;
14681;SDS011;7429;52.498;13.480;2024-03-08T06:23:11;54.93;;;30.27;;
14681;SDS011;7429;52.498;13.480;2024-03-08T06:26:22;54.50;;;29.67;;
14681;SDS011;7429;52.498;13.480;2024-03-08T06:29:40;58.67;;;29.40;;
14681;SDS011;7429;52.498;13.480;2024-03-08T06:33:04;54.90;;;28.87;;
14681;SDS011;7429;52.498;13.480;2024-03-08T06:36:21;48.10;;;29.33;;
14681;SDS011;7429;52.498;13.480;2024-03-08T06:39:32;54.53;;;28.40;;
14681;SDS011;7429;52.498;13.480;2024-03-08T06:42:56;51.53;;;27.63;;
14681;SDS011;7429;52.498;13.480;2024-03-08T06:46:03;58.57;;;28.07;;
14681;SDS011;7429;52.498;13.480;2024-03-08T06:49:23;50.90;;;27.60;;
14681;SDS011;7429;52.498;13.480;2024-03-08T06:52:47;50.70;;;28.03;;
14681;SDS011;7429;52.498;13.480;2024-03-08T06:55:55;55.47;;;28.70;;
14681;SDS011;7429;52.498;13.480;2024-03-08T06:59:01;53.00;;;28.57;;
14681;SDS011;7429;52.498;13.480;2024-03-08T07:02:12;51.50;;;26.93;;
14681;SDS011;7429;52.498;13.480;2024-03-08T07:05:22;45.93;;;25.43;;
14681;SDS011;7429;52.498;13.480;2024-03-08T07:08:34;48.93;;;26.77;;
14681;SDS011;7429;52.498;13.480;2024-03-08T07:15:37;53.63;;;26.77;;
14681;SDS011;7429;52.498;13.480;2024-03-08T07:18:47;46.73;;;26.53;;
14681;SDS011;7429;52.498;13.480;2024-03-08T07:21:56;48.80;;;27.53;;
14681;SDS011;7429;52.498;13.480;2024-03-08T07:25:01;49.33;;;28.27;;
14681;SDS011;7429;52.498;13.480;2024-03-08T07:28:23;46.57;;;25.50;;
14681;SDS011;7429;52.498;13.480;2024-03-08T07:31:26;49.30;;;26.37;;
14681;SDS011;7429;52.498;13.480;2024-03-08T07:34:39;53.30;;;26.43;;
14681;SDS011;7429;52.498;13.480;2024-03-08T07:37:43;50.23;;;26.67;;
14681;SDS011;7429;52.498;13.480;2024-03-08T07:40:55;49.87;;;26.13;;
14681;SDS011;7429;52.498;13.480;2024-03-08T07:44:00;42.77;;;23.47;;
14681;SDS011;7429;52.498;13.480;2024-03-08T07:47:05;48.23;;;26.97;;
14681;SDS011;7429;52.498;13.480;2024-03-08T07:50:49;45.63;;;26.30;;
14681;SDS011;7429;52.498;13.480;2024-03-08T07:53:41;50.67;;;26.13;;
14681;SDS011;7429;52.498;13.480;2024-03-08T07:56:50;46.93;;;27.20;;
14681;SDS011;7429;52.498;13.480;2024-03-08T08:00:18;44.03;;;23.60;;
14681;SDS011;7429;52.498;13.480;2024-03-08T08:03:38;47.90;;;25.37;;
14681;SDS011;7429;52.498;13.480;2024-03-08T08:06:45;44.87;;;25.10;;
14681;SDS011;7429;52.498;13.480;2024-03-08T08:09:49;46.57;;;26.30;;
14681;SDS011;7429;52.498;13.480;2024-03-08T08:12:56;45.00;;;23.40;;
14681;SDS011;7429;52.498;13.480;2024-03-08T08:16:00;39.87;;;24.10;;
14681;SDS011;7429;52.498;13.480;2024-03-08T08:19:12;45.50;;;24.97;;
14681;SDS011;7429;52.498;13.480;2024-03-08T08:22:21;44.97;;;24.90;;
14681;SDS011;7429;52.498;13.480;2024-03-08T08:25:27;40.33;;;22.67;;
14681;SDS011;7429;52.498;13.480;2024-03-08T08:33:40;44.73;;;24.37;;
14681;SDS011;7429;52.498;13.480;2024-03-08T08:37:03;42.40;;;24.10;;
14681;SDS011;7429;52.498;13.480;2024-03-08T08:40:08;38.60;;;22.60;;
14681;SDS011;7429;52.498;13.480;2024-03-08T08:43:33;40.67;;;22.73;;
14681;SDS011;7429;52.498;13.480;2024-03-08T08:47:08;42.40;;;22.83;;
14681;SDS011;7429;52.498;13.480;2024-03-08T08:50:23;37.63;;;22.17;;
14681;SDS011;7429;52.498;13.480;2024-03-08T08:53:45;37.50;;;23.03;;
14681;SDS011;7429;52.498;13.480;2024-03-08T08:56:57;43.03;;;23.50;;
14681;SDS011;7429;52.498;13.480;2024-03-08T09:00:13;41.87;;;22.37;;
14681;SDS011;7429;52.498;13.480;2024-03-08T09:03:40;37.87;;;23.90;;
14681;SDS011;7429;52.498;13.480;2024-03-08T09:13:08;34.07;;;21.57;;
14681;SDS011;7429;52.498;13.480;2024-03-08T09:17:23;42.37;;;23.70;;
14681;SDS011;7429;52.498;13.480;2024-03-08T09:21:13;40.53;;;21.83;;
14681;SDS011;7429;52.498;13.480;2024-03-08T09:24:33;38.37;;;21.93;;
14681;SDS011;7429;52.498;13.480;2024-03-08T09:27:48;39.03;;;19.87;;
14681;SDS011;7429;52.498;13.480;2024-03-08T09:31:02;36.77;;;21.50;;
14681;SDS011;7429;52.498;13.480;2024-03-08T09:34:07;38.80;;;22.70;;
14681;SDS011;7429;52.498;13.480;2024-03-08T09:37:16;40.77;;;22.33;;
14681;SDS011;7429;52.498;13.480;2024-03-08T09:40:26;38.10;;;22.97;;
14681;SDS011;7429;52.498;13.480;2024-03-08T09:43:32;39.77;;;21.93;;
14681;SDS011;7429;52.498;13.480;2024-03-08T09:46:36;33.90;;;20.70;;
14681;SDS011;7429;52.498;13.480;2024-03-08T09:53:47;36.00;;;20.40;;
14681;SDS011;7429;52.498;13.480;2024-03-08T09:57:19;35.13;;;21.93;;
14681;SDS011;7429;52.498;13.480;2024-03-08T10:00:28;34.70;;;21.07;;
14681;SDS011;7429;52.498;13.480;2024-03-08T10:03:38;31.93;;;19.87;;
14681;SDS011;7429;52.498;13.480;2024-03-08T10:06:55;33.60;;;21.27;;
14681;SDS011;7429;52.498;13.480;2024-03-08T10:10:17;30.30;;;19.33;;
14681;SDS011;7429;52.498;13.480;2024-03-08T10:13:30;28.20;;;17.90;;
14681;SDS011;7429;52.498;13.480;2024-03-08T10:16:55;34.83;;;20.67;;
14681;SDS011;7429;52.498;13.480;2024-03-08T10:20:12;33.27;;;18.47;;
14681;SDS011;7429;52.498;13.480;2024-03-08T10:23:25;29.83;;;20.13;;
14681;SDS011;7429;52.498;13.480;2024-03-08T10:26:39;30.17;;;20.60;;
14681;SDS011;7429;52.498;13.480;2024-03-08T10:29:48;31.57;;;19.23;;
14681;SDS011;7429;52.498;13.480;2024-03-08T10:32:58;32.23;;;19.43;;
14681;SDS011;7429;52.498;13.480;2024-03-08T10:36:08;27.73;;;18.67;;
14681;SDS011;7429;52.498;13.480;2024-03-08T10:39:19;31.93;;;18.63;;
14681;SDS011;7429;52.498;13.480;2024-03-08T10:42:29;27.40;;;17.40;;
14681;SDS011;7429;52.498;13.480;2024-03-08T10:45:42;25.63;;;17.30;;
14681;SDS011;7429;52.498;13.480;2024-03-08T10:48:52;28.73;;;18.40;;
14681;SDS011;7429;52.498;13.480;2024-03-08T10:52:04;29.40;;;16.63;;
14681;SDS011;7429;52.498;13.480;2024-03-08T10:55:18;27.57;;;16.40;;
14681;SDS011;7429;52.498;13.480;2024-03-08T10:58:24;30.57;;;18.10;;
14681;SDS011;7429;52.498;13.480;2024-03-08T11:01:34;28.67;;;18.87;;
14681;SDS011;7429;52.498;13.480;2024-03-08T11:04:45;27.77;;;16.73;;
14681;SDS011;7429;52.498;13.480;2024-03-08T11:07:55;30.50;;;17.77;;
14681;SDS011;7429;52.498;13.480;2024-03-08T11:11:23;28.47;;;17.70;;
14681;SDS011;7429;52.498;13.480;2024-03-08T11:32:04;26.33;;;16.13;;
14681;SDS011;7429;52.498;13.480;2024-03-08T11:35:45;27.50;;;17.93;;
14681;SDS011;7429;52.498;13.480;2024-03-08T11:39:10;28.70;;;17.67;;
14681;SDS011;7429;52.498;13.480;2024-03-08T11:42:35;31.50;;;18.60;;
14681;SDS011;7429;52.498;13.480;2024-03-08T11:46:18;26.97;;;17.13;;
14681;SDS011;7429;52.498;13.480;2024-03-08T11:49:46;27.57;;;17.57;;
14681;SDS011;7429;52.498;13.480;2024-03-08T11:52:52;26.63;;;16.83;;
14681;SDS011;7429;52.498;13.480;2024-03-08T11:56:10;25.03;;;17.37;;
14681;SDS011;7429;52.498;13.480;2024-03-08T12:03:09;30.07;;;18.60;;
14681;SDS011;7429;52.498;13.480;2024-03-08T12:06:18;26.83;;;18.17;;
14681;SDS011;7429;52.498;13.480;2024-03-08T12:09:28;28.10;;;16.97;;
14681;SDS011;7429;52.498;13.480;2024-03-08T12:12:57;28.73;;;19.27;;
14681;SDS011;7429;52.498;13.480;2024-03-08T12:16:14;26.27;;;18.70;;
14681;SDS011;7429;52.498;13.480;2024-03-08T12:19:23;27.13;;;18.60;;
14681;SDS011;7429;52.498;13.480;2024-03-08T12:22:34;26.43;;;17.53;;
14681;SDS011;7429;52.498;13.480;2024-03-08T12:25:49;24.23;;;17.17;;
14681;SDS011;7429;52.498;13.480;2024-03-08T12:29:00;24.67;;;18.13;;
14681;SDS011;7429;52.498;13.480;2024-03-08T12:32:37;28.30;;;17.47;;
14681;SDS011;7429;52.498;13.480;2024-03-08T12:35:59;27.43;;;17.40;;
14681;SDS011;7429;52.498;13.480;2024-03-08T12:39:15;25.27;;;17.23;;
14681;SDS011;7429;52.498;13.480;2024-03-08T12:42:33;26.30;;;17.83;;
14681;SDS011;7429;52.498;13.480;2024-03-08T12:45:46;25.20;;;18.43;;
14681;SDS011;7429;52.498;13.480;2024-03-08T12:48:57;23.40;;;17.50;;
14681;SDS011;7429;52.498;13.480;2024-03-08T12:52:08;30.13;;;18.20;;
14681;SDS011;7429;52.498;13.480;2024-03-08T12:55:59;28.63;;;18.03;;
14681;SDS011;7429;52.498;13.480;2024-03-08T13:03:56;25.67;;;16.80;;
14681;SDS011;7429;52.498;13.480;2024-03-08T13:07:43;24.30;;;16.53;;
14681;SDS011;7429;52.498;13.480;2024-03-08T13:10:56;28.73;;;16.53;;
14681;SDS011;7429;52.498;13.480;2024-03-08T13:14:26;25.07;;;18.00;;
14681;SDS011;7429;52.498;13.480;2024-03-08T13:21:35;24.50;;;17.50;;
14681;SDS011;7429;52.498;13.480;2024-03-08T13:24:57;23.97;;;16.33;;
14681;SDS011;7429;52.498;13.480;2024-03-08T13:28:15;22.40;;;15.80;;
14681;SDS011;7429;52.498;13.480;2024-03-08T13:31:32;24.87;;;16.20;;
14681;SDS011;7429;52.498;13.480;2024-03-08T13:34:40;23.20;;;17.07;;
14681;SDS011;7429;52.498;13.480;2024-03-08T13:37:48;23.43;;;16.07;;
14681;SDS011;7429;52.498;13.480;2024-03-08T13:40:51;26.90;;;17.23;;
14681;SDS011;7429;52.498;13.480;2024-03-08T13:44:03;21.50;;;15.53;;
14681;SDS011;7429;52.498;13.480;2024-03-08T13:47:08;27.03;;;15.17;;
14681;SDS011;7429;52.498;13.480;2024-03-08T13:50:13;25.87;;;15.93;;
14681;SDS011;7429;52.498;13.480;2024-03-08T13:53:25;21.27;;;14.87;;
14681;SDS011;7429;52.498;13.480;2024-03-08T13:56:36;23.27;;;15.60;;
14681;SDS011;7429;52.498;13.480;2024-03-08T14:00:07;20.50;;;13.60;;
14681;SDS011;7429;52.498;13.480;2024-03-08T14:03:42;23.60;;;15.90;;
14681;SDS011;7429;52.498;13.480;2024-03-08T14:06:50;19.57;;;14.30;;
14681;SDS011;7429;52.498;13.480;2024-03-08T14:10:07;22.30;;;14.67;;
14681;SDS011;7429;52.498;13.480;2024-03-08T14:13:14;23.87;;;15.47;;
14681;SDS011;7429;52.498;13.480;2024-03-08T14:16:29;22.37;;;14.27;;
14681;SDS011;7429;52.498;13.480;2024-03-08T14:19:33;27.00;;;15.53;;
14681;SDS011;7429;52.498;13.480;2024-03-08T14:22:51;23.73;;;14.80;;
14681;SDS011;7429;52.498;13.480;2024-03-08T14:25:57;20.97;;;14.50;;
14681;SDS011;7429;52.498;13.480;2024-03-08T14:29:06;21.33;;;14.63;;
14681;SDS011;7429;52.498;13.480;2024-03-08T14:32:15;23.80;;;16.23;;
14681;SDS011;7429;52.498;13.480;2024-03-08T14:35:32;22.93;;;14.87;;
14681;SDS011;7429;52.498;13.480;2024-03-08T14:38:41;24.70;;;14.77;;
14681;SDS011;7429;52.498;13.480;2024-03-08T14:41:45;25.37;;;15.47;;
14681;SDS011;7429;52.498;13.480;2024-03-08T14:44:55;23.27;;;14.77;;
14681;SDS011;7429;52.498;13.480;2024-03-08T14:48:07;21.57;;;13.70;;
14681;SDS011;7429;52.498;13.480;2024-03-08T14:51:18;20.60;;;13.60;;
14681;SDS011;7429;52.498;13.480;2024-03-08T14:54:37;18.80;;;12.93;;
14681;SDS011;7429;52.498;13.480;2024-03-08T14:57:42;19.07;;;12.97;;
14681;SDS011;7429;52.498;13.480;2024-03-08T15:00:54;20.30;;;12.93;;
14681;SDS011;7429;52.498;13.480;2024-03-08T15:04:10;17.70;;;12.63;;
14681;SDS011;7429;52.498;13.480;2024-03-08T15:07:17;20.37;;;13.57;;
14681;SDS011;7429;52.498;13.480;2024-03-08T15:10:20;19.47;;;13.33;;
14681;SDS011;7429;52.498;13.480;2024-03-08T15:13:33;17.87;;;12.30;;
14681;SDS011;7429;52.498;13.480;2024-03-08T15:16:44;16.67;;;12.13;;
14681;SDS011;7429;52.498;13.480;2024-03-08T15:19:56;18.73;;;12.13;;
14681;SDS011;7429;52.498;13.480;2024-03-08T15:23:08;18.03;;;12.57;;
14681;SDS011;7429;52.498;13.480;2024-03-08T15:26:24;18.00;;;12.70;;
14681;SDS011;7429;52.498;13.480;2024-03-08T15:29:33;18.20;;;12.27;;
14681;SDS011;7429;52.498;13.480;2024-03-08T15:32:39;18.47;;;12.93;;
14681;SDS011;7429;52.498;13.480;2024-03-08T15:36:19;20.00;;;13.30;;
14681;SDS011;7429;52.498;13.480;2024-03-08T15:39:32;18.80;;;13.63;;
14681;SDS011;7429;52.498;13.480;2024-03-08T15:42:43;20.23;;;13.87;;
14681;SDS011;7429;52.498;13.480;2024-03-08T15:46:07;25.10;;;13.97;;
14681;SDS011;7429;52.498;13.480;2024-03-08T15:49:11;18.90;;;13.37;;
14681;SDS011;7429;52.498;13.480;2024-03-08T15:52:23;20.63;;;13.23;;
14681;SDS011;7429;52.498;13.480;2024-03-08T15:55:39;17.53;;;12.83;;
14681;SDS011;7429;52.498;13.480;2024-03-08T15:59:01;19.07;;;12.70;;
14681;SDS011;7429;52.498;13.480;2024-03-08T16:02:10;21.50;;;12.77;;
14681;SDS011;7429;52.498;13.480;2024-03-08T16:05:20;17.97;;;12.83;;
14681;SDS011;7429;52.498;13.480;2024-03-08T16:08:40;21.37;;;11.77;;
14681;SDS011;7429;52.498;13.480;2024-03-08T16:11:56;16.57;;;11.77;;
14681;SDS011;7429;52.498;13.480;2024-03-08T16:15:11;21.40;;;13.53;;
14681;SDS011;7429;52.498;13.480;2024-03-08T16:18:30;18.20;;;12.40;;
14681;SDS011;7429;52.498;13.480;2024-03-08T16:21:46;17.73;;;13.07;;
14681;SDS011;7429;52.498;13.480;2024-03-08T16:25:08;18.13;;;12.90;;
14681;SDS011;7429;52.498;13.480;2024-03-08T16:28:19;17.10;;;12.20;;
14681;SDS011;7429;52.498;13.480;2024-03-08T16:31:32;18.83;;;13.27;;
14681;SDS011;7429;52.498;13.480;2024-03-08T16:34:37;20.37;;;13.60;;
14681;SDS011;7429;52.498;13.480;2024-03-08T16:38:22;18.77;;;12.67;;
14681;SDS011;7429;52.498;13.480;2024-03-08T16:41:42;21.13;;;12.93;;
14681;SDS011;7429;52.498;13.480;2024-03-08T16:45:18;17.50;;;12.90;;
14681;SDS011;7429;52.498;13.480;2024-03-08T16:48:54;19.23;;;12.53;;
14681;SDS011;7429;52.498;13.480;2024-03-08T16:52:03;21.70;;;13.27;;
14681;SDS011;7429;52.498;13.480;2024-03-08T16:55:12;22.40;;;13.47;;
14681;SDS011;7429;52.498;13.480;2024-03-08T16:58:18;20.63;;;14.23;;
14681;SDS011;7429;52.498;13.480;2024-03-08T17:01:24;22.43;;;14.30;;
14681;SDS011;7429;52.498;13.480;2024-03-08T17:04:32;20.87;;;13.47;;
14681;SDS011;7429;52.498;13.480;2024-03-08T17:07:38;21.53;;;13.23;;
14681;SDS011;7429;52.498;13.480;2024-03-08T17:10:47;19.87;;;14.07;;
14681;SDS011;7429;52.498;13.480;2024-03-08T17:13:53;19.53;;;12.77;;
14681;SDS011;7429;52.498;13.480;2024-03-08T17:16:57;19.63;;;14.90;;
14681;SDS011;7429;52.498;13.480;2024-03-08T17:25:25;23.60;;;14.07;;
14681;SDS011;7429;52.498;13.480;2024-03-08T17:28:35;21.13;;;13.07;;
14681;SDS011;7429;52.498;13.480;2024-03-08T17:32:47;21.90;;;14.07;;
14681;SDS011;7429;52.498;13.480;2024-03-08T17:37:38;24.53;;;13.97;;
14681;SDS011;7429;52.498;13.480;2024-03-08T17:40:58;20.27;;;13.90;;
14681;SDS011;7429;52.498;13.480;2024-03-08T17:44:28;21.43;;;14.10;;
14681;SDS011;7429;52.498;13.480;2024-03-08T17:47:37;22.37;;;13.50;;
14681;SDS011;7429;52.498;13.480;2024-03-08T17:51:36;21.60;;;14.53;;
14681;SDS011;7429;52.498;13.480;2024-03-08T17:54:51;23.57;;;14.43;;
14681;SDS011;7429;52.498;13.480;2024-03-08T17:58:22;23.73;;;14.50;;
14681;SDS011;7429;52.498;13.480;2024-03-08T18:05:01;22.90;;;15.73;;
14681;SDS011;7429;52.498;13.480;2024-03-08T18:08:14;23.63;;;14.67;;
14681;SDS011;7429;52.498;13.480;2024-03-08T18:11:20;22.63;;;16.13;;
14681;SDS011;7429;52.498;13.480;2024-03-08T18:14:24;25.97;;;15.97;;
14681;SDS011;7429;52.498;13.480;2024-03-08T18:17:29;21.83;;;15.93;;
14681;SDS011;7429;52.498;13.480;2024-03-08T18:20:32;21.40;;;14.17;;
14681;SDS011;7429;52.498;13.480;2024-03-08T18:23:46;23.17;;;15.53;;
14681;SDS011;7429;52.498;13.480;2024-03-08T18:27:07;25.57;;;16.90;;
14681;SDS011;7429;52.498;13.480;2024-03-08T18:30:17;23.63;;;16.00;;
14681;SDS011;7429;52.498;13.480;2024-03-08T18:33:25;26.90;;;15.40;;
14681;SDS011;7429;52.498;13.480;2024-03-08T18:36:34;27.20;;;15.93;;
14681;SDS011;7429;52.498;13.480;2024-03-08T18:39:40;23.43;;;14.90;;
14681;SDS011;7429;52.498;13.480;2024-03-08T18:42:54;24.90;;;15.30;;
14681;SDS011;7429;52.498;13.480;2024-03-08T18:46:02;26.23;;;16.07;;
14681;SDS011;7429;52.498;13.480;2024-03-08T18:49:11;23.53;;;15.37;;
14681;SDS011;7429;52.498;13.480;2024-03-08T18:52:17;26.30;;;16.67;;
14681;SDS011;7429;52.498;13.480;2024-03-08T18:55:23;30.43;;;16.30;;
14681;SDS011;7429;52.498;13.480;2024-03-08T18:58:30;25.03;;;15.47;;
14681;SDS011;7429;52.498;13.480;2024-03-08T19:01:49;25.23;;;16.67;;
14681;SDS011;7429;52.498;13.480;2024-03-08T19:04:56;21.70;;;14.90;;
14681;SDS011;7429;52.498;13.480;2024-03-08T19:08:09;28.90;;;16.63;;
14681;SDS011;7429;52.498;13.480;2024-03-08T19:11:22;28.17;;;15.83;;
14681;SDS011;7429;52.498;13.480;2024-03-08T19:14:28;26.17;;;16.20;;
14681;SDS011;7429;52.498;13.480;2024-03-08T19:17:39;29.37;;;16.73;;
14681;SDS011;7429;52.498;13.480;2024-03-08T19:20:42;29.93;;;16.13;;
14681;SDS011;7429;52.498;13.480;2024-03-08T19:23:53;25.47;;;15.93;;
14681;SDS011;7429;52.498;13.480;2024-03-08T19:27:03;24.97;;;15.73;;
14681;SDS011;7429;52.498;13.480;2024-03-08T19:30:14;25.70;;;15.47;;
14681;SDS011;7429;52.498;13.480;2024-03-08T19:33:31;30.93;;;16.67;;
14681;SDS011;7429;52.498;13.480;2024-03-08T19:36:38;26.60;;;15.57;;
14681;SDS011;7429;52.498;13.480;2024-03-08T19:39:42;27.10;;;16.17;;
14681;SDS011;7429;52.498;13.480;2024-03-08T19:42:56;24.83;;;17.03;;
14681;SDS011;7429;52.498;13.480;2024-03-08T19:46:07;26.87;;;16.73;;
14681;SDS011;7429;52.498;13.480;2024-03-08T19:49:14;25.27;;;16.57;;
14681;SDS011;7429;52.498;13.480;2024-03-08T19:52:18;28.40;;;18.07;;
14681;SDS011;7429;52.498;13.480;2024-03-08T19:55:24;28.60;;;17.40;;
14681;SDS011;7429;52.498;13.480;2024-03-08T19:58:41;29.60;;;16.43;;